Kezdőlap
METAR-TAF:

METAR-TAF

Repülőterek :

Kartúm, Szudán

földrajzi szélesség: 15-36N, földrajzi hosszúság: 032-33E, magasság: 382 m

Jelenlegi meteorológiai megfigyelések

A jelentés 8 perccel ezelõtt készült, 01:00 UTC
Észak-északkeleti szél 10 kt
Hőmérséklet 28°C
Páratartalom 10%
Légköri nyomás 1009 hPa
Látótávolság 10 km, vagy több
felhőtlen 1500 m magasságban, és nincs gomolyfelhõ

METAR: HSSS 240100Z 02010KT CAVOK 28/M07 Q1009 NOSIG

Idő: 04:08 (01:08 UTC)

Előrejelzés

A jelentés 2 órával és 8 perccel ezelõtt készült, 23:00 UTC
Az előrejelzés 24-én 00 óra UTC és 25-én 06 óra UTC között érvényes
Északi szél 10 kt széllökések: 20 kt
Látótávolság 10 km, vagy több
felhőtlen 1500 m magasságban, és nincs gomolyfelhõ
Valószínűség 30% :
24-én 03 óra UTC és 24-én 08 óra UTC között ideiglenes
Látótávolság: 5000 m

TAF: HSSS 232300Z 2400/2506 36010G20KT CAVOK PROB30 TEMPO 2403/2408 5000

Meteorológiai megfigyelések és előrejelzések több, mint 4000 repülőtéren (METAR és TAF jelentéseket).

A térképen piros és sárga pontok jelzik az elérhető meteorológiai állomásokat.

Mozgassa az egeret a pont fölött, hogy megjelenjen az állomás neve.

Azután kattintson az időjárási megfigyelések és előrejelzések megtekintéséhez.

A térkép megváltoztatása: kattintson a fekete keresztel jelölt zöld gombra ráközelítéshez, a vonallal jelölt zöld gombra távolításhoz, vagy a zöld nyilakra a szomszédos térképek eléréséhez.


METAR-TAF: